sensor_id;sensor_type;location;lat;lon;timestamp;temperature;humidity
10411;DHT22;5251;52.112;8.606;2023-04-03T00:01:32;5.50;85.60
10411;DHT22;5251;52.112;8.606;2023-04-03T00:03:58;5.40;85.50
10411;DHT22;5251;52.112;8.606;2023-04-03T00:06:25;5.40;85.50
10411;DHT22;5251;52.112;8.606;2023-04-03T00:08:52;5.40;85.70
10411;DHT22;5251;52.112;8.606;2023-04-03T00:11:18;5.40;85.70
10411;DHT22;5251;52.112;8.606;2023-04-03T00:13:44;5.30;85.80
10411;DHT22;5251;52.112;8.606;2023-04-03T00:16:11;5.20;86.00
10411;DHT22;5251;52.112;8.606;2023-04-03T00:18:38;5.20;86.10
10411;DHT22;5251;52.112;8.606;2023-04-03T00:21:04;5.10;86.10
10411;DHT22;5251;52.112;8.606;2023-04-03T00:23:30;5.10;86.10
10411;DHT22;5251;52.112;8.606;2023-04-03T00:25:56;5.10;86.10
10411;DHT22;5251;52.112;8.606;2023-04-03T00:28:22;5.10;86.20
10411;DHT22;5251;52.112;8.606;2023-04-03T00:30:50;5.00;86.40
10411;DHT22;5251;52.112;8.606;2023-04-03T00:33:16;5.00;86.60
10411;DHT22;5251;52.112;8.606;2023-04-03T00:35:42;5.00;86.60
10411;DHT22;5251;52.112;8.606;2023-04-03T00:38:08;4.90;86.70
10411;DHT22;5251;52.112;8.606;2023-04-03T00:40:36;4.90;86.80
10411;DHT22;5251;52.112;8.606;2023-04-03T00:43:10;4.80;86.90
10411;DHT22;5251;52.112;8.606;2023-04-03T00:45:42;4.80;87.00
10411;DHT22;5251;52.112;8.606;2023-04-03T00:48:11;4.70;87.20
10411;DHT22;5251;52.112;8.606;2023-04-03T00:50:41;4.70;87.30
10411;DHT22;5251;52.112;8.606;2023-04-03T00:53:12;4.70;87.60
10411;DHT22;5251;52.112;8.606;2023-04-03T00:55:39;4.60;87.60
10411;DHT22;5251;52.112;8.606;2023-04-03T00:58:06;4.60;88.50
10411;DHT22;5251;52.112;8.606;2023-04-03T01:00:34;4.50;87.70
10411;DHT22;5251;52.112;8.606;2023-04-03T01:03:01;4.50;87.90
10411;DHT22;5251;52.112;8.606;2023-04-03T01:05:27;4.50;88.20
10411;DHT22;5251;52.112;8.606;2023-04-03T01:07:53;4.40;88.20
10411;DHT22;5251;52.112;8.606;2023-04-03T01:10:19;4.40;88.20
10411;DHT22;5251;52.112;8.606;2023-04-03T01:12:49;4.40;88.30
10411;DHT22;5251;52.112;8.606;2023-04-03T01:15:24;4.40;88.50
10411;DHT22;5251;52.112;8.606;2023-04-03T01:17:51;4.30;88.60
10411;DHT22;5251;52.112;8.606;2023-04-03T01:25:38;4.20;89.00
10411;DHT22;5251;52.112;8.606;2023-04-03T01:28:05;4.20;89.10
10411;DHT22;5251;52.112;8.606;2023-04-03T01:30:34;4.10;89.20
10411;DHT22;5251;52.112;8.606;2023-04-03T01:33:01;4.10;89.40
10411;DHT22;5251;52.112;8.606;2023-04-03T01:35:27;4.10;89.50
10411;DHT22;5251;52.112;8.606;2023-04-03T01:37:53;4.10;89.60
10411;DHT22;5251;52.112;8.606;2023-04-03T01:40:18;4.00;89.70
10411;DHT22;5251;52.112;8.606;2023-04-03T01:42:44;4.00;89.70
10411;DHT22;5251;52.112;8.606;2023-04-03T01:45:10;4.00;89.80
10411;DHT22;5251;52.112;8.606;2023-04-03T01:47:36;4.00;89.90
10411;DHT22;5251;52.112;8.606;2023-04-03T01:50:02;3.90;89.90
10411;DHT22;5251;52.112;8.606;2023-04-03T01:52:28;3.80;90.00
10411;DHT22;5251;52.112;8.606;2023-04-03T01:54:53;3.90;90.00
10411;DHT22;5251;52.112;8.606;2023-04-03T01:57:19;3.90;90.00
10411;DHT22;5251;52.112;8.606;2023-04-03T01:59:45;3.80;90.00
10411;DHT22;5251;52.112;8.606;2023-04-03T02:02:10;3.80;90.00
10411;DHT22;5251;52.112;8.606;2023-04-03T02:04:37;3.80;90.00
10411;DHT22;5251;52.112;8.606;2023-04-03T02:07:03;3.80;90.00
10411;DHT22;5251;52.112;8.606;2023-04-03T02:09:29;3.80;90.00
10411;DHT22;5251;52.112;8.606;2023-04-03T02:11:54;3.80;90.00
10411;DHT22;5251;52.112;8.606;2023-04-03T02:14:20;3.70;90.00
10411;DHT22;5251;52.112;8.606;2023-04-03T02:16:47;3.70;90.20
10411;DHT22;5251;52.112;8.606;2023-04-03T02:19:12;3.60;90.10
10411;DHT22;5251;52.112;8.606;2023-04-03T02:21:38;3.60;90.20
10411;DHT22;5251;52.112;8.606;2023-04-03T02:24:04;3.60;90.20
10411;DHT22;5251;52.112;8.606;2023-04-03T02:26:30;3.50;90.30
10411;DHT22;5251;52.112;8.606;2023-04-03T02:28:56;3.50;90.50
10411;DHT22;5251;52.112;8.606;2023-04-03T02:31:22;3.40;90.50
10411;DHT22;5251;52.112;8.606;2023-04-03T02:33:48;3.40;90.50
10411;DHT22;5251;52.112;8.606;2023-04-03T02:36:13;3.40;90.60
10411;DHT22;5251;52.112;8.606;2023-04-03T02:38:39;3.40;90.70
10411;DHT22;5251;52.112;8.606;2023-04-03T02:41:07;3.40;90.80
10411;DHT22;5251;52.112;8.606;2023-04-03T02:43:33;3.30;90.80
10411;DHT22;5251;52.112;8.606;2023-04-03T02:45:59;3.30;90.80
10411;DHT22;5251;52.112;8.606;2023-04-03T02:48:24;3.30;90.90
10411;DHT22;5251;52.112;8.606;2023-04-03T02:50:51;3.30;91.00
10411;DHT22;5251;52.112;8.606;2023-04-03T02:53:17;3.20;91.00
10411;DHT22;5251;52.112;8.606;2023-04-03T02:55:43;3.20;91.00
10411;DHT22;5251;52.112;8.606;2023-04-03T02:58:08;3.20;91.30
10411;DHT22;5251;52.112;8.606;2023-04-03T03:00:34;3.10;91.30
10411;DHT22;5251;52.112;8.606;2023-04-03T03:03:00;3.10;91.30
10411;DHT22;5251;52.112;8.606;2023-04-03T03:05:26;3.10;91.30
10411;DHT22;5251;52.112;8.606;2023-04-03T03:07:52;3.10;91.20
10411;DHT22;5251;52.112;8.606;2023-04-03T03:10:18;3.10;91.30
10411;DHT22;5251;52.112;8.606;2023-04-03T03:12:44;3.10;91.20
10411;DHT22;5251;52.112;8.606;2023-04-03T03:15:09;3.00;91.10
10411;DHT22;5251;52.112;8.606;2023-04-03T03:17:35;3.00;91.10
10411;DHT22;5251;52.112;8.606;2023-04-03T03:20:02;3.00;91.10
10411;DHT22;5251;52.112;8.606;2023-04-03T03:22:28;3.00;91.20
10411;DHT22;5251;52.112;8.606;2023-04-03T03:24:53;2.90;91.40
10411;DHT22;5251;52.112;8.606;2023-04-03T03:27:20;2.90;91.60
10411;DHT22;5251;52.112;8.606;2023-04-03T03:29:46;2.90;91.50
10411;DHT22;5251;52.112;8.606;2023-04-03T03:32:11;2.80;91.50
10411;DHT22;5251;52.112;8.606;2023-04-03T03:34:37;2.80;91.80
10411;DHT22;5251;52.112;8.606;2023-04-03T03:37:03;2.80;91.80
10411;DHT22;5251;52.112;8.606;2023-04-03T03:39:29;2.70;91.80
10411;DHT22;5251;52.112;8.606;2023-04-03T03:41:54;2.70;91.90
10411;DHT22;5251;52.112;8.606;2023-04-03T03:44:20;2.70;92.00
10411;DHT22;5251;52.112;8.606;2023-04-03T03:46:46;2.70;92.10
10411;DHT22;5251;52.112;8.606;2023-04-03T03:49:12;2.70;92.10
10411;DHT22;5251;52.112;8.606;2023-04-03T03:51:39;2.60;92.10
10411;DHT22;5251;52.112;8.606;2023-04-03T03:54:05;2.60;92.10
10411;DHT22;5251;52.112;8.606;2023-04-03T03:56:31;2.60;92.20
10411;DHT22;5251;52.112;8.606;2023-04-03T03:58:57;2.60;92.20
10411;DHT22;5251;52.112;8.606;2023-04-03T04:01:23;2.60;92.20
10411;DHT22;5251;52.112;8.606;2023-04-03T04:03:49;2.60;92.20
10411;DHT22;5251;52.112;8.606;2023-04-03T04:06:15;2.50;92.20
10411;DHT22;5251;52.112;8.606;2023-04-03T04:08:41;2.50;92.20
10411;DHT22;5251;52.112;8.606;2023-04-03T04:11:07;2.50;92.20
10411;DHT22;5251;52.112;8.606;2023-04-03T04:13:32;2.50;92.30
10411;DHT22;5251;52.112;8.606;2023-04-03T04:15:58;2.40;92.70
10411;DHT22;5251;52.112;8.606;2023-04-03T04:18:23;2.40;92.40
10411;DHT22;5251;52.112;8.606;2023-04-03T04:20:50;2.40;92.50
10411;DHT22;5251;52.112;8.606;2023-04-03T04:23:16;2.40;92.50
10411;DHT22;5251;52.112;8.606;2023-04-03T04:25:48;2.30;92.50
10411;DHT22;5251;52.112;8.606;2023-04-03T04:28:14;2.30;92.70
10411;DHT22;5251;52.112;8.606;2023-04-03T04:30:40;2.30;92.70
10411;DHT22;5251;52.112;8.606;2023-04-03T04:33:06;2.30;92.80
10411;DHT22;5251;52.112;8.606;2023-04-03T04:35:32;2.30;92.90
10411;DHT22;5251;52.112;8.606;2023-04-03T04:37:58;2.30;93.00
10411;DHT22;5251;52.112;8.606;2023-04-03T04:40:23;2.20;92.90
10411;DHT22;5251;52.112;8.606;2023-04-03T04:42:49;2.20;92.90
10411;DHT22;5251;52.112;8.606;2023-04-03T04:45:15;2.20;93.00
10411;DHT22;5251;52.112;8.606;2023-04-03T04:47:41;2.20;93.00
10411;DHT22;5251;52.112;8.606;2023-04-03T04:50:07;2.20;93.00
10411;DHT22;5251;52.112;8.606;2023-04-03T04:52:33;2.20;93.00
10411;DHT22;5251;52.112;8.606;2023-04-03T04:54:58;2.10;92.90
10411;DHT22;5251;52.112;8.606;2023-04-03T04:57:24;2.10;92.90
10411;DHT22;5251;52.112;8.606;2023-04-03T04:59:49;2.10;93.10
10411;DHT22;5251;52.112;8.606;2023-04-03T05:02:15;2.10;93.20
10411;DHT22;5251;52.112;8.606;2023-04-03T05:04:41;2.00;93.40
10411;DHT22;5251;52.112;8.606;2023-04-03T05:07:06;2.00;93.50
10411;DHT22;5251;52.112;8.606;2023-04-03T05:09:32;2.00;93.60
10411;DHT22;5251;52.112;8.606;2023-04-03T05:11:57;2.00;93.60
10411;DHT22;5251;52.112;8.606;2023-04-03T05:14:23;2.00;93.70
10411;DHT22;5251;52.112;8.606;2023-04-03T05:16:49;2.00;93.80
10411;DHT22;5251;52.112;8.606;2023-04-03T05:19:18;2.00;93.90
10411;DHT22;5251;52.112;8.606;2023-04-03T05:21:43;2.00;93.90
10411;DHT22;5251;52.112;8.606;2023-04-03T05:24:09;2.00;94.00
10411;DHT22;5251;52.112;8.606;2023-04-03T05:26:35;2.00;94.00
10411;DHT22;5251;52.112;8.606;2023-04-03T05:29:01;2.10;94.20
10411;DHT22;5251;52.112;8.606;2023-04-03T05:31:26;2.00;94.30
10411;DHT22;5251;52.112;8.606;2023-04-03T05:33:55;2.00;94.40
10411;DHT22;5251;52.112;8.606;2023-04-03T05:36:21;2.00;94.50
10411;DHT22;5251;52.112;8.606;2023-04-03T05:38:47;2.10;94.60
10411;DHT22;5251;52.112;8.606;2023-04-03T05:41:13;2.10;94.70
10411;DHT22;5251;52.112;8.606;2023-04-03T05:43:39;2.10;94.80
10411;DHT22;5251;52.112;8.606;2023-04-03T05:46:12;2.10;94.80
10411;DHT22;5251;52.112;8.606;2023-04-03T05:48:38;2.20;94.80
10411;DHT22;5251;52.112;8.606;2023-04-03T05:51:05;2.20;94.90
10411;DHT22;5251;52.112;8.606;2023-04-03T05:53:33;2.30;95.00
10411;DHT22;5251;52.112;8.606;2023-04-03T05:56:00;2.30;95.00
10411;DHT22;5251;52.112;8.606;2023-04-03T05:58:25;2.30;95.00
10411;DHT22;5251;52.112;8.606;2023-04-03T06:00:51;2.40;94.90
10411;DHT22;5251;52.112;8.606;2023-04-03T06:03:16;2.40;94.90
10411;DHT22;5251;52.112;8.606;2023-04-03T06:05:42;2.50;94.80
10411;DHT22;5251;52.112;8.606;2023-04-03T06:08:08;2.60;94.80
10411;DHT22;5251;52.112;8.606;2023-04-03T06:10:35;2.60;94.80
10411;DHT22;5251;52.112;8.606;2023-04-03T06:13:01;2.70;94.80
10411;DHT22;5251;52.112;8.606;2023-04-03T06:15:27;2.80;94.70
10411;DHT22;5251;52.112;8.606;2023-04-03T06:17:53;2.90;94.80
10411;DHT22;5251;52.112;8.606;2023-04-03T06:20:19;2.90;94.70
10411;DHT22;5251;52.112;8.606;2023-04-03T06:22:44;3.00;94.50
10411;DHT22;5251;52.112;8.606;2023-04-03T06:25:11;3.00;94.50
10411;DHT22;5251;52.112;8.606;2023-04-03T06:27:37;3.10;94.50
10411;DHT22;5251;52.112;8.606;2023-04-03T06:30:04;3.20;94.30
10411;DHT22;5251;52.112;8.606;2023-04-03T06:32:30;3.20;94.10
10411;DHT22;5251;52.112;8.606;2023-04-03T06:34:55;3.30;93.90
10411;DHT22;5251;52.112;8.606;2023-04-03T06:37:22;3.40;93.90
10411;DHT22;5251;52.112;8.606;2023-04-03T06:39:51;3.40;94.00
10411;DHT22;5251;52.112;8.606;2023-04-03T06:42:17;3.40;94.10
10411;DHT22;5251;52.112;8.606;2023-04-03T06:44:43;3.50;94.00
10411;DHT22;5251;52.112;8.606;2023-04-03T06:47:13;3.60;93.80
10411;DHT22;5251;52.112;8.606;2023-04-03T06:49:39;3.70;93.60
10411;DHT22;5251;52.112;8.606;2023-04-03T06:52:05;3.70;93.50
10411;DHT22;5251;52.112;8.606;2023-04-03T06:54:31;3.80;93.30
10411;DHT22;5251;52.112;8.606;2023-04-03T06:56:57;3.90;93.20
10411;DHT22;5251;52.112;8.606;2023-04-03T06:59:23;3.90;93.10
10411;DHT22;5251;52.112;8.606;2023-04-03T07:01:49;4.10;93.00
10411;DHT22;5251;52.112;8.606;2023-04-03T07:04:15;4.10;92.60
10411;DHT22;5251;52.112;8.606;2023-04-03T07:06:40;4.20;92.50
10411;DHT22;5251;52.112;8.606;2023-04-03T07:09:09;4.30;92.40
10411;DHT22;5251;52.112;8.606;2023-04-03T07:11:34;4.40;92.40
10411;DHT22;5251;52.112;8.606;2023-04-03T07:14:01;4.50;92.20
10411;DHT22;5251;52.112;8.606;2023-04-03T07:16:27;4.60;92.20
10411;DHT22;5251;52.112;8.606;2023-04-03T07:18:56;4.70;91.60
10411;DHT22;5251;52.112;8.606;2023-04-03T07:21:21;4.90;91.10
10411;DHT22;5251;52.112;8.606;2023-04-03T07:23:47;5.00;91.00
10411;DHT22;5251;52.112;8.606;2023-04-03T07:26:12;5.20;90.20
10411;DHT22;5251;52.112;8.606;2023-04-03T07:28:38;5.20;90.30
10411;DHT22;5251;52.112;8.606;2023-04-03T07:31:09;5.30;89.70
10411;DHT22;5251;52.112;8.606;2023-04-03T07:33:37;5.40;87.80
10411;DHT22;5251;52.112;8.606;2023-04-03T07:36:03;5.50;89.40
10411;DHT22;5251;52.112;8.606;2023-04-03T07:38:29;5.60;87.60
10411;DHT22;5251;52.112;8.606;2023-04-03T07:40:54;5.70;88.20
10411;DHT22;5251;52.112;8.606;2023-04-03T07:43:21;5.80;88.40
10411;DHT22;5251;52.112;8.606;2023-04-03T07:45:48;5.90;87.30
10411;DHT22;5251;52.112;8.606;2023-04-03T07:48:19;6.00;86.20
10411;DHT22;5251;52.112;8.606;2023-04-03T07:50:45;6.10;86.90
10411;DHT22;5251;52.112;8.606;2023-04-03T07:53:10;6.20;86.60
10411;DHT22;5251;52.112;8.606;2023-04-03T07:55:37;6.30;85.80
10411;DHT22;5251;52.112;8.606;2023-04-03T07:58:13;6.30;85.30
10411;DHT22;5251;52.112;8.606;2023-04-03T08:00:40;6.50;85.70
10411;DHT22;5251;52.112;8.606;2023-04-03T08:03:07;6.50;84.20
10411;DHT22;5251;52.112;8.606;2023-04-03T08:05:41;6.60;82.70
10411;DHT22;5251;52.112;8.606;2023-04-03T08:08:08;6.60;84.30
10411;DHT22;5251;52.112;8.606;2023-04-03T08:10:34;6.70;84.80
10411;DHT22;5251;52.112;8.606;2023-04-03T08:13:00;6.80;83.10
10411;DHT22;5251;52.112;8.606;2023-04-03T08:15:26;6.80;84.30
10411;DHT22;5251;52.112;8.606;2023-04-03T08:17:52;6.90;82.70
10411;DHT22;5251;52.112;8.606;2023-04-03T08:20:18;7.00;83.30
10411;DHT22;5251;52.112;8.606;2023-04-03T08:22:44;7.00;82.80
10411;DHT22;5251;52.112;8.606;2023-04-03T08:25:10;7.10;82.20
10411;DHT22;5251;52.112;8.606;2023-04-03T08:27:35;7.20;83.30
10411;DHT22;5251;52.112;8.606;2023-04-03T08:30:01;7.20;81.90
10411;DHT22;5251;52.112;8.606;2023-04-03T08:32:27;7.30;80.70
10411;DHT22;5251;52.112;8.606;2023-04-03T08:34:53;7.30;81.20
10411;DHT22;5251;52.112;8.606;2023-04-03T08:37:18;7.30;79.90
10411;DHT22;5251;52.112;8.606;2023-04-03T08:39:44;7.40;80.30
10411;DHT22;5251;52.112;8.606;2023-04-03T08:44:59;7.40;79.10
10411;DHT22;5251;52.112;8.606;2023-04-03T08:47:48;7.40;78.30
10411;DHT22;5251;52.112;8.606;2023-04-03T08:50:20;7.50;76.30
10411;DHT22;5251;52.112;8.606;2023-04-03T08:52:58;7.40;75.20
10411;DHT22;5251;52.112;8.606;2023-04-03T08:55:40;7.40;76.40
10411;DHT22;5251;52.112;8.606;2023-04-03T08:58:20;7.40;76.10
10411;DHT22;5251;52.112;8.606;2023-04-03T09:00:53;7.40;77.50
10411;DHT22;5251;52.112;8.606;2023-04-03T09:03:22;7.40;77.20
10411;DHT22;5251;52.112;8.606;2023-04-03T09:08:33;7.40;78.40
10411;DHT22;5251;52.112;8.606;2023-04-03T09:14:01;7.50;75.60
10411;DHT22;5251;52.112;8.606;2023-04-03T09:22:25;7.60;76.60
10411;DHT22;5251;52.112;8.606;2023-04-03T09:27:22;7.60;76.50
10411;DHT22;5251;52.112;8.606;2023-04-03T09:29:49;7.70;76.60
10411;DHT22;5251;52.112;8.606;2023-04-03T09:32:34;7.70;76.60
10411;DHT22;5251;52.112;8.606;2023-04-03T09:37:46;7.80;77.00
10411;DHT22;5251;52.112;8.606;2023-04-03T09:42:52;7.80;75.30
10411;DHT22;5251;52.112;8.606;2023-04-03T09:45:33;7.90;75.70
10411;DHT22;5251;52.112;8.606;2023-04-03T09:48:09;7.90;77.80
10411;DHT22;5251;52.112;8.606;2023-04-03T09:55:55;8.10;73.60
10411;DHT22;5251;52.112;8.606;2023-04-03T10:00:56;8.10;70.50
10411;DHT22;5251;52.112;8.606;2023-04-03T10:03:36;8.10;69.20
10411;DHT22;5251;52.112;8.606;2023-04-03T10:06:23;8.10;69.10
10411;DHT22;5251;52.112;8.606;2023-04-03T10:09:04;8.00;70.00
10411;DHT22;5251;52.112;8.606;2023-04-03T10:11:31;8.00;70.50
10411;DHT22;5251;52.112;8.606;2023-04-03T10:13:59;8.00;70.00
10411;DHT22;5251;52.112;8.606;2023-04-03T10:16:52;8.00;70.00
10411;DHT22;5251;52.112;8.606;2023-04-03T10:21:58;8.10;73.60
10411;DHT22;5251;52.112;8.606;2023-04-03T10:24:36;8.10;75.30
10411;DHT22;5251;52.112;8.606;2023-04-03T10:29:46;8.50;72.90
10411;DHT22;5251;52.112;8.606;2023-04-03T10:35:10;8.70;71.50
10411;DHT22;5251;52.112;8.606;2023-04-03T10:37:49;8.70;70.10
10411;DHT22;5251;52.112;8.606;2023-04-03T10:43:29;8.70;69.80
10411;DHT22;5251;52.112;8.606;2023-04-03T10:46:06;8.60;69.30
10411;DHT22;5251;52.112;8.606;2023-04-03T10:49:15;8.70;72.70
10411;DHT22;5251;52.112;8.606;2023-04-03T10:51:45;8.90;73.30
10411;DHT22;5251;52.112;8.606;2023-04-03T10:56:50;9.20;69.70
10411;DHT22;5251;52.112;8.606;2023-04-03T10:59:32;9.40;71.80
10411;DHT22;5251;52.112;8.606;2023-04-03T11:04:56;9.90;68.60
10411;DHT22;5251;52.112;8.606;2023-04-03T11:07:33;10.10;65.70
10411;DHT22;5251;52.112;8.606;2023-04-03T11:10:11;10.20;66.00
10411;DHT22;5251;52.112;8.606;2023-04-03T11:12:48;10.40;66.20
10411;DHT22;5251;52.112;8.606;2023-04-03T11:15:29;10.40;64.90
10411;DHT22;5251;52.112;8.606;2023-04-03T11:18:21;10.50;64.40
10411;DHT22;5251;52.112;8.606;2023-04-03T11:21:00;10.40;61.80
10411;DHT22;5251;52.112;8.606;2023-04-03T11:23:36;10.40;64.30
10411;DHT22;5251;52.112;8.606;2023-04-03T11:26:09;10.40;63.80
10411;DHT22;5251;52.112;8.606;2023-04-03T11:28:36;10.40;65.20
10411;DHT22;5251;52.112;8.606;2023-04-03T11:34:13;10.40;64.30
10411;DHT22;5251;52.112;8.606;2023-04-03T11:36:49;10.50;63.40
10411;DHT22;5251;52.112;8.606;2023-04-03T11:39:28;10.50;61.50
10411;DHT22;5251;52.112;8.606;2023-04-03T11:41:54;10.40;61.60
10411;DHT22;5251;52.112;8.606;2023-04-03T11:44:39;10.40;63.50
10411;DHT22;5251;52.112;8.606;2023-04-03T11:47:06;10.40;61.90
10411;DHT22;5251;52.112;8.606;2023-04-03T11:50:04;10.50;64.00
10411;DHT22;5251;52.112;8.606;2023-04-03T12:05:49;10.50;60.70
10411;DHT22;5251;52.112;8.606;2023-04-03T12:08:27;10.60;63.40
10411;DHT22;5251;52.112;8.606;2023-04-03T12:26:47;11.10;60.20
10411;DHT22;5251;52.112;8.606;2023-04-03T12:40:21;11.30;60.40
10411;DHT22;5251;52.112;8.606;2023-04-03T12:45:51;11.60;60.60
10411;DHT22;5251;52.112;8.606;2023-04-03T12:48:22;11.80;57.60
10411;DHT22;5251;52.112;8.606;2023-04-03T12:50:50;11.90;58.70
10411;DHT22;5251;52.112;8.606;2023-04-03T12:53:19;12.10;57.20
10411;DHT22;5251;52.112;8.606;2023-04-03T12:55:46;12.10;57.80
10411;DHT22;5251;52.112;8.606;2023-04-03T12:58:26;12.20;57.80
10411;DHT22;5251;52.112;8.606;2023-04-03T13:01:20;12.30;56.20
10411;DHT22;5251;52.112;8.606;2023-04-03T13:03:50;12.30;57.10
10411;DHT22;5251;52.112;8.606;2023-04-03T13:06:19;12.30;55.40
10411;DHT22;5251;52.112;8.606;2023-04-03T13:08:51;12.30;55.20
10411;DHT22;5251;52.112;8.606;2023-04-03T13:11:19;12.30;54.20
10411;DHT22;5251;52.112;8.606;2023-04-03T13:16:25;12.30;55.80
10411;DHT22;5251;52.112;8.606;2023-04-03T13:18:53;12.20;53.90
10411;DHT22;5251;52.112;8.606;2023-04-03T13:21:26;12.20;55.30
10411;DHT22;5251;52.112;8.606;2023-04-03T13:23:57;12.20;55.90
10411;DHT22;5251;52.112;8.606;2023-04-03T13:26:26;12.20;56.40
10411;DHT22;5251;52.112;8.606;2023-04-03T13:28:56;12.20;55.90
10411;DHT22;5251;52.112;8.606;2023-04-03T13:31:26;12.30;55.50
10411;DHT22;5251;52.112;8.606;2023-04-03T13:34:20;12.30;54.40
10411;DHT22;5251;52.112;8.606;2023-04-03T13:36:58;12.20;53.10
10411;DHT22;5251;52.112;8.606;2023-04-03T13:39:29;12.10;53.50
10411;DHT22;5251;52.112;8.606;2023-04-03T13:42:00;12.10;53.10
10411;DHT22;5251;52.112;8.606;2023-04-03T13:44:36;11.90;53.20
10411;DHT22;5251;52.112;8.606;2023-04-03T13:49:42;11.60;54.20
10411;DHT22;5251;52.112;8.606;2023-04-03T13:52:27;11.50;52.60
10411;DHT22;5251;52.112;8.606;2023-04-03T13:54:59;11.30;52.90
10411;DHT22;5251;52.112;8.606;2023-04-03T13:57:26;11.20;54.60
10411;DHT22;5251;52.112;8.606;2023-04-03T13:59:54;11.10;56.10
10411;DHT22;5251;52.112;8.606;2023-04-03T14:02:29;11.00;54.90
10411;DHT22;5251;52.112;8.606;2023-04-03T14:04:59;10.90;56.00
10411;DHT22;5251;52.112;8.606;2023-04-03T14:07:28;10.90;56.50
10411;DHT22;5251;52.112;8.606;2023-04-03T14:09:54;10.80;56.70
10411;DHT22;5251;52.112;8.606;2023-04-03T14:12:31;10.80;55.50
10411;DHT22;5251;52.112;8.606;2023-04-03T14:15:00;10.80;56.10
10411;DHT22;5251;52.112;8.606;2023-04-03T14:17:26;10.80;54.00
10411;DHT22;5251;52.112;8.606;2023-04-03T14:19:55;10.70;55.00
10411;DHT22;5251;52.112;8.606;2023-04-03T14:22:22;10.70;56.10
10411;DHT22;5251;52.112;8.606;2023-04-03T14:24:50;10.70;55.10
10411;DHT22;5251;52.112;8.606;2023-04-03T14:27:23;10.80;57.00
10411;DHT22;5251;52.112;8.606;2023-04-03T14:29:50;10.80;57.60
10411;DHT22;5251;52.112;8.606;2023-04-03T14:32:18;10.80;57.20
10411;DHT22;5251;52.112;8.606;2023-04-03T14:34:45;10.90;56.20
10411;DHT22;5251;52.112;8.606;2023-04-03T14:37:17;10.90;56.70
10411;DHT22;5251;52.112;8.606;2023-04-03T14:39:43;10.90;56.00
10411;DHT22;5251;52.112;8.606;2023-04-03T14:42:14;11.00;57.00
10411;DHT22;5251;52.112;8.606;2023-04-03T14:44:40;10.90;56.80
10411;DHT22;5251;52.112;8.606;2023-04-03T14:47:12;10.90;58.10
10411;DHT22;5251;52.112;8.606;2023-04-03T14:49:39;10.90;57.50
10411;DHT22;5251;52.112;8.606;2023-04-03T14:52:04;11.00;57.80
10411;DHT22;5251;52.112;8.606;2023-04-03T14:54:30;11.10;57.00
10411;DHT22;5251;52.112;8.606;2023-04-03T14:56:58;11.10;55.10
10411;DHT22;5251;52.112;8.606;2023-04-03T14:59:24;11.10;54.30
10411;DHT22;5251;52.112;8.606;2023-04-03T15:01:50;11.10;54.00
10411;DHT22;5251;52.112;8.606;2023-04-03T15:04:20;11.10;54.60
10411;DHT22;5251;52.112;8.606;2023-04-03T15:06:47;11.10;56.30
10411;DHT22;5251;52.112;8.606;2023-04-03T15:09:27;11.00;55.70
10411;DHT22;5251;52.112;8.606;2023-04-03T15:11:54;11.00;53.80
10411;DHT22;5251;52.112;8.606;2023-04-03T15:14:20;11.00;54.50
10411;DHT22;5251;52.112;8.606;2023-04-03T15:16:46;10.90;54.90
10411;DHT22;5251;52.112;8.606;2023-04-03T15:19:12;10.90;56.20
10411;DHT22;5251;52.112;8.606;2023-04-03T15:21:39;11.00;57.50
10411;DHT22;5251;52.112;8.606;2023-04-03T15:24:04;11.00;56.80
10411;DHT22;5251;52.112;8.606;2023-04-03T15:26:31;11.10;56.90
10411;DHT22;5251;52.112;8.606;2023-04-03T15:28:57;11.20;57.40
10411;DHT22;5251;52.112;8.606;2023-04-03T15:31:22;11.20;56.30
10411;DHT22;5251;52.112;8.606;2023-04-03T15:33:49;11.30;55.10
10411;DHT22;5251;52.112;8.606;2023-04-03T15:36:15;11.20;55.20
10411;DHT22;5251;52.112;8.606;2023-04-03T15:38:40;11.20;53.90
10411;DHT22;5251;52.112;8.606;2023-04-03T15:41:06;11.10;53.50
10411;DHT22;5251;52.112;8.606;2023-04-03T15:43:32;11.10;53.30
10411;DHT22;5251;52.112;8.606;2023-04-03T15:45:59;11.00;54.20
10411;DHT22;5251;52.112;8.606;2023-04-03T15:48:26;10.90;53.20
10411;DHT22;5251;52.112;8.606;2023-04-03T15:50:53;10.90;55.00
10411;DHT22;5251;52.112;8.606;2023-04-03T15:53:18;11.00;54.90
10411;DHT22;5251;52.112;8.606;2023-04-03T15:55:44;11.10;54.90
10411;DHT22;5251;52.112;8.606;2023-04-03T15:58:10;11.10;56.10
10411;DHT22;5251;52.112;8.606;2023-04-03T16:00:36;11.10;55.70
10411;DHT22;5251;52.112;8.606;2023-04-03T16:03:10;11.10;55.10
10411;DHT22;5251;52.112;8.606;2023-04-03T16:05:37;11.10;54.70
10411;DHT22;5251;52.112;8.606;2023-04-03T16:08:04;11.00;54.00
10411;DHT22;5251;52.112;8.606;2023-04-03T16:10:30;10.90;54.40
10411;DHT22;5251;52.112;8.606;2023-04-03T16:12:56;10.80;55.30
10411;DHT22;5251;52.112;8.606;2023-04-03T16:15:23;10.80;54.50
10411;DHT22;5251;52.112;8.606;2023-04-03T16:17:49;10.70;55.90
10411;DHT22;5251;52.112;8.606;2023-04-03T16:20:16;10.60;55.00
10411;DHT22;5251;52.112;8.606;2023-04-03T16:22:42;10.60;55.90
10411;DHT22;5251;52.112;8.606;2023-04-03T16:25:09;10.60;56.30
10411;DHT22;5251;52.112;8.606;2023-04-03T16:27:35;10.60;55.90
10411;DHT22;5251;52.112;8.606;2023-04-03T16:30:00;10.60;55.60
10411;DHT22;5251;52.112;8.606;2023-04-03T16:32:28;10.60;55.90
10411;DHT22;5251;52.112;8.606;2023-04-03T16:34:54;10.60;55.10
10411;DHT22;5251;52.112;8.606;2023-04-03T16:37:20;10.50;54.10
10411;DHT22;5251;52.112;8.606;2023-04-03T16:39:46;10.40;54.60
10411;DHT22;5251;52.112;8.606;2023-04-03T16:42:12;10.40;55.40
10411;DHT22;5251;52.112;8.606;2023-04-03T16:44:37;10.30;56.30
10411;DHT22;5251;52.112;8.606;2023-04-03T16:47:05;10.20;55.80
10411;DHT22;5251;52.112;8.606;2023-04-03T16:49:31;10.20;55.90
10411;DHT22;5251;52.112;8.606;2023-04-03T16:51:59;10.10;55.60
10411;DHT22;5251;52.112;8.606;2023-04-03T16:54:26;10.10;56.00
10411;DHT22;5251;52.112;8.606;2023-04-03T16:56:51;10.10;56.10
10411;DHT22;5251;52.112;8.606;2023-04-03T16:59:17;10.00;56.50
10411;DHT22;5251;52.112;8.606;2023-04-03T17:01:42;10.00;55.70
10411;DHT22;5251;52.112;8.606;2023-04-03T17:04:08;10.10;56.00
10411;DHT22;5251;52.112;8.606;2023-04-03T17:06:34;10.10;56.10
10411;DHT22;5251;52.112;8.606;2023-04-03T17:09:00;10.10;55.20
10411;DHT22;5251;52.112;8.606;2023-04-03T17:11:27;10.00;56.80
10411;DHT22;5251;52.112;8.606;2023-04-03T17:13:53;10.00;56.50
10411;DHT22;5251;52.112;8.606;2023-04-03T17:16:18;9.90;56.60
10411;DHT22;5251;52.112;8.606;2023-04-03T17:18:44;9.90;56.30
10411;DHT22;5251;52.112;8.606;2023-04-03T17:21:11;9.90;56.60
10411;DHT22;5251;52.112;8.606;2023-04-03T17:23:38;9.80;56.30
10411;DHT22;5251;52.112;8.606;2023-04-03T17:26:05;9.70;56.70
10411;DHT22;5251;52.112;8.606;2023-04-03T17:28:30;9.70;56.90
10411;DHT22;5251;52.112;8.606;2023-04-03T17:30:58;9.70;57.60
10411;DHT22;5251;52.112;8.606;2023-04-03T17:33:25;9.50;56.90
10411;DHT22;5251;52.112;8.606;2023-04-03T17:35:51;9.50;57.30
10411;DHT22;5251;52.112;8.606;2023-04-03T17:38:17;9.40;57.60
10411;DHT22;5251;52.112;8.606;2023-04-03T17:40:43;9.30;58.20
10411;DHT22;5251;52.112;8.606;2023-04-03T17:43:10;9.30;58.30
10411;DHT22;5251;52.112;8.606;2023-04-03T17:45:36;9.20;58.70
10411;DHT22;5251;52.112;8.606;2023-04-03T17:48:02;9.20;58.70